Time;durP1;ratioP1;P1;durP2;ratioP2;P2;SDS_P1;SDS_P2;PMS_P1;PMS_P2;Temp;Humidity;BMP_temperature;BMP_pressure;BME280_temperature;BME280_humidity;BME280_pressure;Samples;Min_cycle;Max_cycle;Signal;HPM_P1;HPM_P2
2022/01/03 00:02:23;;;;;;;;;;;19.20;54.90;;;;;;5047042;28;42993;-72
2022/01/03 00:04:48;;;;;;;;;;;19.20;54.90;;;;;;5038669;28;43640;-71
2022/01/03 00:07:14;;;;;;;;;;;19.20;55.00;;;;;;5034723;28;43077;-77
2022/01/03 00:09:40;;;;;;;;;;;19.20;54.90;;;;;;5029094;28;43712;-71
2022/01/03 00:12:06;;;;;;;;;;;19.20;54.90;;;;;;5026457;28;42977;-79
2022/01/03 00:14:32;;;;;;;;;;;19.20;54.90;;;;;;5026339;28;42973;-73
2022/01/03 00:16:57;;;;;;;;;;;19.20;54.90;;;;;;5026282;28;43084;-79
2022/01/03 00:19:23;;;;;;;;;;;19.20;54.90;;;;;;5024547;28;42936;-71
2022/01/03 00:21:50;;;;;;;;;;;19.20;54.80;;;;;;5026871;28;42976;-78
2022/01/03 00:24:19;;;;;;;;;;;19.20;54.90;;;;;;5026398;28;42901;-75
2022/01/03 00:26:48;;;;;;;;;;;19.20;54.80;;;;;;5025645;28;43063;-73
2022/01/03 00:29:19;;;;;;;;;;;19.20;54.80;;;;;;5029096;28;44611;-74
2022/01/03 00:31:45;;;;;;;;;;;19.20;54.90;;;;;;5041325;28;42990;-73
2022/01/03 00:34:12;;;;;;;;;;;19.20;54.80;;;;;;5033706;28;43058;-78
2022/01/03 00:36:38;;;;;;;;;;;19.20;54.80;;;;;;5034814;28;42909;-73
2022/01/03 00:39:07;;;;;;;;;;;19.20;54.80;;;;;;5035974;28;43619;-75
2022/01/03 00:41:32;;;;;;;;;;;19.10;54.70;;;;;;5034146;28;43025;-72
2022/01/03 00:43:58;;;;;;;;;;;19.10;54.70;;;;;;5034289;28;43009;-79
2022/01/03 00:46:25;;;;;;;;;;;19.10;54.70;;;;;;5036455;28;43072;-79
2022/01/03 00:48:51;;;;;;;;;;;19.10;54.70;;;;;;5034560;28;43086;-77
2022/01/03 00:51:19;;;;;;;;;;;19.10;54.70;;;;;;5033849;28;43052;-74
2022/01/03 00:53:48;;;;;;;;;;;19.10;54.70;;;;;;5035554;28;42969;-78
2022/01/03 00:56:15;;;;;;;;;;;19.10;54.70;;;;;;5035281;28;43020;-73
2022/01/03 00:58:52;;;;;;;;;;;19.10;54.70;;;;;;5038730;28;42964;-80
2022/01/03 01:01:18;;;;;;;;;;;19.10;54.60;;;;;;5018616;28;43058;-83
2022/01/03 01:03:44;;;;;;;;;;;19.10;54.60;;;;;;5035413;28;43405;-73
2022/01/03 01:06:10;;;;;;;;;;;19.10;54.60;;;;;;5030674;28;43434;-76
2022/01/03 01:08:36;;;;;;;;;;;19.10;54.60;;;;;;5025410;28;43241;-74
2022/01/03 01:11:06;;;;;;;;;;;19.10;54.60;;;;;;5024244;28;43589;-72
2022/01/03 01:13:32;;;;;;;;;;;19.10;54.60;;;;;;5026763;28;43695;-75
2022/01/03 01:15:58;;;;;;;;;;;19.00;54.50;;;;;;5033964;28;42916;-74
2022/01/03 01:18:24;;;;;;;;;;;19.00;54.60;;;;;;5025429;28;43599;-82
2022/01/03 01:20:50;;;;;;;;;;;19.00;54.50;;;;;;5024620;28;43024;-74
2022/01/03 01:23:15;;;;;;;;;;;19.00;54.50;;;;;;5024631;28;43985;-76
2022/01/03 01:28:08;;;;;;;;;;;19.00;54.50;;;;;;5023738;28;42843;-82
2022/01/03 01:30:34;;;;;;;;;;;19.00;54.50;;;;;;5023048;28;43574;-81
2022/01/03 01:33:05;;;;;;;;;;;19.00;54.50;;;;;;5023239;28;43119;-77
2022/01/03 01:35:42;;;;;;;;;;;19.00;54.50;;;;;;5024289;28;42928;-81
2022/01/03 01:38:10;;;;;;;;;;;19.00;54.50;;;;;;5024038;28;44043;-74
2022/01/03 01:40:41;;;;;;;;;;;19.00;54.50;;;;;;5024081;28;42940;-79
2022/01/03 01:43:08;;;;;;;;;;;19.00;54.50;;;;;;5023182;28;42933;-75
2022/01/03 01:45:33;;;;;;;;;;;18.90;54.40;;;;;;5024686;28;43065;-74
2022/01/03 01:48:00;;;;;;;;;;;18.90;54.40;;;;;;5024763;28;43607;-79
2022/01/03 01:50:27;;;;;;;;;;;18.90;54.40;;;;;;5025176;28;42961;-76
2022/01/03 01:52:53;;;;;;;;;;;18.90;54.40;;;;;;5024376;28;43719;-78
2022/01/03 01:55:19;;;;;;;;;;;21.10;55.50;;;;;;5024641;28;43290;-75
2022/01/03 01:57:48;;;;;;;;;;;18.90;54.40;;;;;;5024363;28;42966;-75
2022/01/03 02:00:14;;;;;;;;;;;18.90;54.40;;;;;;5024479;28;42890;-78
2022/01/03 02:02:43;;;;;;;;;;;18.90;54.40;;;;;;5024224;28;42915;-73
2022/01/03 02:05:17;;;;;;;;;;;18.90;54.40;;;;;;5024800;28;42925;-75
2022/01/03 02:07:48;;;;;;;;;;;18.90;54.40;;;;;;5023498;28;43563;-75
2022/01/03 02:10:15;;;;;;;;;;;18.90;54.30;;;;;;5024182;28;42846;-73
2022/01/03 02:12:42;;;;;;;;;;;18.90;54.40;;;;;;5024587;28;42927;-76
2022/01/03 02:15:13;;;;;;;;;;;18.90;54.30;;;;;;5024600;28;42893;-76
2022/01/03 02:17:39;;;;;;;;;;;18.90;54.40;;;;;;5024585;28;43616;-80
2022/01/03 02:20:16;;;;;;;;;;;18.90;54.30;;;;;;5024557;28;43173;-80
2022/01/03 02:22:42;;;;;;;;;;;18.90;54.30;;;;;;5024207;28;43513;-71
2022/01/03 02:25:09;;;;;;;;;;;18.90;54.30;;;;;;5023461;28;42992;-77
2022/01/03 02:27:35;;;;;;;;;;;18.90;54.30;;;;;;5024425;28;43643;-80
2022/01/03 02:30:01;;;;;;;;;;;18.80;54.30;;;;;;5024298;28;42984;-80
2022/01/03 02:32:27;;;;;;;;;;;18.80;54.30;;;;;;5023383;28;42876;-78
2022/01/03 02:34:53;;;;;;;;;;;18.80;54.30;;;;;;5024056;28;42992;-73
2022/01/03 02:37:18;;;;;;;;;;;18.80;54.30;;;;;;5024499;28;44042;-83
2022/01/03 02:39:44;;;;;;;;;;;18.80;54.30;;;;;;5023678;28;43054;-84
2022/01/03 02:42:10;;;;;;;;;;;18.80;54.20;;;;;;5024311;28;42976;-73
2022/01/03 02:44:35;;;;;;;;;;;18.80;54.20;;;;;;5024705;28;42874;-73
2022/01/03 02:47:01;;;;;;;;;;;18.80;54.30;;;;;;5023929;28;43017;-75
2022/01/03 02:49:26;;;;;;;;;;;18.80;54.20;;;;;;5024585;28;43040;-78
2022/01/03 02:51:52;;;;;;;;;;;18.80;54.20;;;;;;5023507;28;43195;-73
2022/01/03 02:54:17;;;;;;;;;;;18.80;54.20;;;;;;5023791;28;43033;-81
2022/01/03 02:56:43;;;;;;;;;;;18.80;54.20;;;;;;5024064;28;43065;-74
2022/01/03 02:59:12;;;;;;;;;;;18.80;54.20;;;;;;5023994;28;43015;-73
2022/01/03 03:01:40;;;;;;;;;;;18.80;54.20;;;;;;5023514;28;43402;-82
2022/01/03 03:04:06;;;;;;;;;;;18.80;54.20;;;;;;5024319;28;42862;-75
2022/01/03 03:06:31;;;;;;;;;;;18.80;54.20;;;;;;5023283;28;43543;-81
2022/01/03 03:08:58;;;;;;;;;;;18.80;54.20;;;;;;5023701;28;42905;-73
2022/01/03 03:11:24;;;;;;;;;;;18.80;54.20;;;;;;5023178;28;43923;-76
2022/01/03 03:13:49;;;;;;;;;;;18.70;54.10;;;;;;5023063;28;43027;-75
2022/01/03 03:16:15;;;;;;;;;;;18.70;54.10;;;;;;5023653;28;43543;-73
2022/01/03 03:18:44;;;;;;;;;;;18.70;54.10;;;;;;5023885;28;43223;-82
2022/01/03 03:21:09;;;;;;;;;;;18.70;54.10;;;;;;5023851;28;43369;-73
2022/01/03 03:23:35;;;;;;;;;;;18.70;54.10;;;;;;5022724;28;43162;-73
2022/01/03 03:26:00;;;;;;;;;;;18.70;54.10;;;;;;5023829;28;43931;-73
2022/01/03 03:28:26;;;;;;;;;;;18.70;54.10;;;;;;5023583;28;43008;-81
2022/01/03 03:30:53;;;;;;;;;;;18.70;54.10;;;;;;5023352;28;43024;-80
2022/01/03 03:33:22;;;;;;;;;;;18.70;54.10;;;;;;5023311;28;42930;-80
2022/01/03 03:35:50;;;;;;;;;;;18.70;54.10;;;;;;5005017;28;44928;-82
2022/01/03 03:38:16;;;;;;;;;;;18.70;54.10;;;;;;5025742;28;43282;-74
2022/01/03 03:40:45;;;;;;;;;;;18.70;54.10;;;;;;5027006;28;43896;-73
2022/01/03 03:43:11;;;;;;;;;;;18.70;54.10;;;;;;5027120;28;42923;-82
2022/01/03 03:45:37;;;;;;;;;;;18.70;54.10;;;;;;5026372;28;43489;-73
2022/01/03 03:48:02;;;;;;;;;;;18.70;54.10;;;;;;5027133;28;42944;-79
2022/01/03 03:50:28;;;;;;;;;;;18.70;54.10;;;;;;5027139;28;42814;-81
2022/01/03 03:52:53;;;;;;;;;;;18.70;54.10;;;;;;5026708;28;43173;-74
2022/01/03 03:55:19;;;;;;;;;;;18.60;54.00;;;;;;5026031;28;42897;-74
2022/01/03 03:57:44;;;;;;;;;;;18.70;54.10;;;;;;5027310;28;42912;-79
2022/01/03 04:00:12;;;;;;;;;;;18.60;54.00;;;;;;5026157;28;43108;-75
2022/01/03 04:02:38;;;;;;;;;;;18.60;54.00;;;;;;5026855;28;42921;-82
2022/01/03 04:05:04;;;;;;;;;;;18.60;54.00;;;;;;5026639;28;43419;-74
2022/01/03 04:07:29;;;;;;;;;;;18.60;54.00;;;;;;5025956;28;42799;-81
2022/01/03 04:09:55;;;;;;;;;;;18.60;54.00;;;;;;5026615;28;43656;-81
2022/01/03 04:12:20;;;;;;;;;;;18.60;54.00;;;;;;5026619;28;42831;-75
2022/01/03 04:14:46;;;;;;;;;;;18.60;54.00;;;;;;5025885;28;43672;-74
2022/01/03 04:17:12;;;;;;;;;;;18.60;54.00;;;;;;5026823;28;42775;-73
2022/01/03 04:19:38;;;;;;;;;;;18.60;54.00;;;;;;5026814;28;43336;-80
2022/01/03 04:22:03;;;;;;;;;;;18.60;54.00;;;;;;5026785;28;43096;-73
2022/01/03 04:24:29;;;;;;;;;;;18.60;54.00;;;;;;5031875;28;42979;-73
2022/01/03 04:26:54;;;;;;;;;;;18.60;54.00;;;;;;5045372;28;42948;-76
2022/01/03 04:29:20;;;;;;;;;;;18.60;54.00;;;;;;5045881;28;42849;-77
2022/01/03 04:31:45;;;;;;;;;;;18.60;54.00;;;;;;5046347;28;42967;-81
2022/01/03 04:34:11;;;;;;;;;;;18.60;53.90;;;;;;5045744;28;43694;-80
2022/01/03 04:36:36;;;;;;;;;;;18.60;53.90;;;;;;5046296;28;43070;-74
2022/01/03 04:39:03;;;;;;;;;;;18.60;54.00;;;;;;5045741;28;43655;-76
2022/01/03 04:41:29;;;;;;;;;;;18.60;54.00;;;;;;5046199;28;42992;-76
2022/01/03 04:43:54;;;;;;;;;;;18.60;53.90;;;;;;5045999;28;43757;-77
2022/01/03 04:46:20;;;;;;;;;;;18.60;53.90;;;;;;5045919;28;43007;-76
2022/01/03 04:48:45;;;;;;;;;;;18.50;53.90;;;;;;5044579;28;43055;-79
2022/01/03 04:51:11;;;;;;;;;;;18.60;53.90;;;;;;5045592;28;42916;-75
2022/01/03 04:53:39;;;;;;;;;;;18.50;53.90;;;;;;5045766;28;42876;-80
2022/01/03 04:56:06;;;;;;;;;;;18.50;54.00;;;;;;5044872;28;43052;-79
2022/01/03 04:58:32;;;;;;;;;;;18.50;53.90;;;;;;5044686;28;43810;-81
2022/01/03 05:00:57;;;;;;;;;;;18.50;53.90;;;;;;5045935;28;43126;-78
2022/01/03 05:03:23;;;;;;;;;;;18.50;53.90;;;;;;5045574;28;43046;-76
2022/01/03 05:05:48;;;;;;;;;;;18.50;53.90;;;;;;5046096;28;42837;-79
2022/01/03 05:08:14;;;;;;;;;;;18.50;53.90;;;;;;5044932;28;42933;-76
2022/01/03 05:10:40;;;;;;;;;;;18.50;53.80;;;;;;5046045;28;42925;-76
2022/01/03 05:13:05;;;;;;;;;;;18.50;53.90;;;;;;5045094;28;42867;-76
2022/01/03 05:15:31;;;;;;;;;;;18.50;53.90;;;;;;5045998;28;42956;-79
2022/01/03 05:17:57;;;;;;;;;;;18.50;53.90;;;;;;5045084;28;43611;-79
2022/01/03 05:20:22;;;;;;;;;;;18.50;53.90;;;;;;5045800;28;42958;-76
2022/01/03 05:22:48;;;;;;;;;;;18.50;53.90;;;;;;5044768;28;44014;-75
2022/01/03 05:25:13;;;;;;;;;;;18.50;53.80;;;;;;5045103;28;42966;-79
2022/01/03 05:27:40;;;;;;;;;;;18.50;53.80;;;;;;5044602;28;43043;-76
2022/01/03 05:30:07;;;;;;;;;;;18.50;53.80;;;;;;5044218;28;43039;-79
2022/01/03 05:32:32;;;;;;;;;;;18.50;53.80;;;;;;5044716;28;43652;-76
2022/01/03 05:34:58;;;;;;;;;;;18.50;53.80;;;;;;5044326;28;42891;-76
2022/01/03 05:37:26;;;;;;;;;;;18.50;54.20;;;;;;5044874;28;43951;-76
2022/01/03 05:39:52;;;;;;;;;;;18.20;54.70;;;;;;5044905;28;43022;-75
2022/01/03 05:42:17;;;;;;;;;;;18.50;53.80;;;;;;5045161;28;43339;-73
2022/01/03 05:44:43;;;;;;;;;;;18.50;53.80;;;;;;5044869;28;42946;-75
2022/01/03 05:47:09;;;;;;;;;;;18.50;53.80;;;;;;5044668;28;42972;-79
2022/01/03 05:49:34;;;;;;;;;;;18.40;53.80;;;;;;5045241;28;42959;-76
2022/01/03 05:52:00;;;;;;;;;;;18.40;53.70;;;;;;5044786;28;42840;-77
2022/01/03 05:54:25;;;;;;;;;;;18.40;53.80;;;;;;5045100;28;42888;-76
2022/01/03 05:56:51;;;;;;;;;;;18.40;53.80;;;;;;5044975;28;43582;-74
2022/01/03 05:59:16;;;;;;;;;;;18.40;53.80;;;;;;5044870;28;43011;-74
2022/01/03 06:01:42;;;;;;;;;;;18.40;53.70;;;;;;5044298;28;43014;-80
2022/01/03 06:04:21;;;;;;;;;;;18.40;53.70;;;;;;5043777;28;43063;-76
2022/01/03 06:06:54;;;;;;;;;;;18.40;53.70;;;;;;5044289;28;43668;-74
2022/01/03 06:09:20;;;;;;;;;;;18.40;53.70;;;;;;5044548;28;42937;-76
2022/01/03 06:11:46;;;;;;;;;;;18.40;53.70;;;;;;5044625;28;42826;-77
2022/01/03 06:14:14;;;;;;;;;;;18.40;53.70;;;;;;5044861;28;42944;-73
2022/01/03 06:16:39;;;;;;;;;;;18.40;53.80;;;;;;5044025;28;43628;-76
2022/01/03 06:19:05;;;;;;;;;;;18.40;53.70;;;;;;5044075;28;42795;-80
2022/01/03 06:21:31;;;;;;;;;;;18.40;53.70;;;;;;5044743;28;43576;-76
2022/01/03 06:23:56;;;;;;;;;;;18.40;54.20;;;;;;5044358;28;43027;-76
2022/01/03 06:26:22;;;;;;;;;;;18.40;53.70;;;;;;5026312;28;42901;-75
2022/01/03 06:28:48;;;;;;;;;;;18.40;53.70;;;;;;5044704;28;42914;-80
2022/01/03 06:31:13;;;;;;;;;;;18.40;53.80;;;;;;5026280;28;42951;-75
2022/01/03 06:33:40;;;;;;;;;;;18.40;53.70;;;;;;5044647;28;42916;-74
2022/01/03 06:36:06;;;;;;;;;;;18.40;53.70;;;;;;5043654;28;43287;-72
2022/01/03 06:38:31;;;;;;;;;;;18.40;53.70;;;;;;5026191;28;43015;-74
2022/01/03 06:40:57;;;;;;;;;;;18.30;53.60;;;;;;5041554;28;43579;-74
2022/01/03 06:43:22;;;;;;;;;;;18.40;54.20;;;;;;5043553;28;42870;-78
2022/01/03 06:45:48;;;;;;;;;;;18.40;53.60;;;;;;5043228;28;43034;-74
2022/01/03 06:48:13;;;;;;;;;;;18.40;53.60;;;;;;5044329;28;43070;-77
2022/01/03 06:50:39;;;;;;;;;;;18.40;53.60;;;;;;5043397;28;42976;-76
2022/01/03 06:53:05;;;;;;;;;;;18.40;53.70;;;;;;5044705;28;42940;-78
2022/01/03 06:55:30;;;;;;;;;;;18.40;53.60;;;;;;5035325;28;43096;-81
2022/01/03 06:57:56;;;;;;;;;;;18.40;53.60;;;;;;5041793;28;43245;-78
2022/01/03 07:00:21;;;;;;;;;;;18.50;53.70;;;;;;5036043;28;43566;-78
2022/01/03 07:02:47;;;;;;;;;;;18.50;53.60;;;;;;5041262;28;43163;-77
2022/01/03 07:05:14;;;;;;;;;;;18.50;53.60;;;;;;5036546;28;43137;-78
2022/01/03 07:07:39;;;;;;;;;;;18.50;53.60;;;;;;5006260;28;43006;-83
2022/01/03 07:10:06;;;;;;;;;;;18.60;53.60;;;;;;5034904;28;43273;-80
2022/01/03 07:12:31;;;;;;;;;;;18.60;53.60;;;;;;5042612;28;43004;-75
2022/01/03 07:20:09;;;;;;;;;;;18.60;53.50;;;;;;5041265;28;43204;-77
2022/01/03 07:22:39;;;;;;;;;;;18.60;53.50;;;;;;5028031;28;42909;-76
2022/01/03 07:25:05;;;;;;;;;;;18.60;53.50;;;;;;5027811;28;42984;-82
2022/01/03 07:27:31;;;;;;;;;;;18.60;53.50;;;;;;5030026;28;42972;-76
2022/01/03 07:29:56;;;;;;;;;;;18.70;53.50;;;;;;5036403;28;43051;-78
2022/01/03 07:32:22;;;;;;;;;;;18.70;53.60;;;;;;5038083;28;42917;-76
2022/01/03 07:34:48;;;;;;;;;;;18.70;53.50;;;;;;5035095;28;42894;-76
2022/01/03 07:37:13;;;;;;;;;;;18.70;53.50;;;;;;5036551;28;42925;-79
2022/01/03 07:39:39;;;;;;;;;;;18.70;53.60;;;;;;5027762;28;42809;-76
2022/01/03 07:42:04;;;;;;;;;;;18.70;53.50;;;;;;5032559;28;42883;-80
2022/01/03 07:44:30;;;;;;;;;;;18.70;53.50;;;;;;5034626;28;43058;-81
2022/01/03 07:46:55;;;;;;;;;;;18.70;53.50;;;;;;5034601;28;42953;-81
2022/01/03 07:49:21;;;;;;;;;;;18.70;53.50;;;;;;5026834;28;42943;-78
2022/01/03 07:51:47;;;;;;;;;;;18.70;54.00;;;;;;5027349;28;42838;-76
2022/01/03 07:54:13;;;;;;;;;;;18.70;53.50;;;;;;5034117;28;43020;-76
2022/01/03 07:56:39;;;;;;;;;;;18.70;53.50;;;;;;5033604;28;43035;-78
2022/01/03 07:59:05;;;;;;;;;;;18.70;53.50;;;;;;5036113;28;43980;-76
2022/01/03 08:01:31;;;;;;;;;;;18.70;53.50;;;;;;5040274;28;42949;-80
2022/01/03 08:03:57;;;;;;;;;;;18.80;53.50;;;;;;5039876;28;43112;-76
2022/01/03 08:06:22;;;;;;;;;;;18.80;53.60;;;;;;5033828;28;42979;-76
2022/01/03 08:08:48;;;;;;;;;;;18.80;53.60;;;;;;5035995;28;44057;-76
2022/01/03 08:11:14;;;;;;;;;;;;;;;;;;5026980;28;42893;-76
2022/01/03 08:13:39;;;;;;;;;;;18.00;46.70;;;;;;5008803;28;43963;-76
2022/01/03 08:16:05;;;;;;;;;;;17.30;46.70;;;;;;5027042;28;42900;-80
2022/01/03 08:18:32;;;;;;;;;;;16.70;46.20;;;;;;5027098;28;43676;-75
2022/01/03 08:20:58;;;;;;;;;;;16.30;47.10;;;;;;5026191;28;42854;-82
2022/01/03 08:23:24;;;;;;;;;;;16.10;47.00;;;;;;5027277;28;43697;-79
2022/01/03 08:25:49;;;;;;;;;;;15.70;46.00;;;;;;5039952;28;43014;-74
2022/01/03 08:28:15;;;;;;;;;;;15.20;47.80;;;;;;5036118;28;42930;-80
2022/01/03 08:30:40;;;;;;;;;;;15.20;49.10;;;;;;5046416;28;43091;-78
2022/01/03 08:33:06;;;;;;;;;;;15.10;63.80;;;;;;5046289;28;42834;-75
2022/01/03 08:35:33;;;;;;;;;;;14.90;58.80;;;;;;5049618;22;42948;-75
2022/01/03 08:37:59;;;;;;;;;;;15.70;57.40;;;;;;5007106;28;43879;-75
2022/01/03 08:40:25;;;;;;;;;;;14.50;52.10;;;;;;5007431;28;42953;-75
2022/01/03 08:42:51;;;;;;;;;;;14.60;54.30;;;;;;5007718;28;43079;-75
2022/01/03 08:45:17;;;;;;;;;;;14.60;50.50;;;;;;5026020;28;43078;-76
2022/01/03 08:47:43;;;;;;;;;;;14.30;48.40;;;;;;5026589;28;43316;-76
2022/01/03 08:50:09;;;;;;;;;;;14.40;49.60;;;;;;5026684;28;42929;-75
2022/01/03 08:52:35;;;;;;;;;;;14.10;48.60;;;;;;5026739;28;42967;-77
2022/01/03 08:55:00;;;;;;;;;;;14.00;47.70;;;;;;5027385;28;42844;-76
2022/01/03 08:57:26;;;;;;;;;;;14.10;48.80;;;;;;5026736;28;43599;-76
2022/01/03 08:59:51;;;;;;;;;;;14.30;49.00;;;;;;5015107;28;43113;-77
2022/01/03 09:02:17;;;;;;;;;;;14.30;48.70;;;;;;5017181;28;43441;-77
2022/01/03 09:04:43;;;;;;;;;;;14.40;47.80;;;;;;5016953;28;42976;-76
2022/01/03 09:07:09;;;;;;;;;;;14.50;48.10;;;;;;4991105;28;43783;-76
2022/01/03 09:09:35;;;;;;;;;;;14.40;48.50;;;;;;5016396;28;43028;-78
2022/01/03 09:12:01;;;;;;;;;;;14.40;47.70;;;;;;5013195;28;43193;-76
2022/01/03 09:14:26;;;;;;;;;;;14.50;48.10;;;;;;5014266;28;42937;-77
2022/01/03 09:16:54;;;;;;;;;;;14.50;48.00;;;;;;5003453;28;45045;-77
2022/01/03 09:19:20;;;;;;;;;;;15.50;49.30;;;;;;5015908;28;43227;-75
2022/01/03 09:21:46;;;;;;;;;;;14.40;48.30;;;;;;5014335;28;43029;-76
2022/01/03 09:29:27;;;;;;;;;;;14.00;48.50;;;;;;5012222;28;43113;-76
2022/01/03 09:31:53;;;;;;;;;;;14.30;49.00;;;;;;4992024;28;43989;-77
2022/01/03 09:34:19;;;;;;;;;;;14.60;48.40;;;;;;5007894;28;43190;-76
2022/01/03 09:36:45;;;;;;;;;;;14.20;48.50;;;;;;5014028;28;43352;-75
2022/01/03 09:39:11;;;;;;;;;;;14.00;47.90;;;;;;5010520;28;43000;-76
2022/01/03 09:41:43;;;;;;;;;;;14.10;47.30;;;;;;5010921;28;43486;-76
2022/01/03 09:44:11;;;;;;;;;;;14.70;48.50;;;;;;5015571;28;42924;-78
2022/01/03 09:46:41;;;;;;;;;;;14.50;48.00;;;;;;5018858;28;43192;-79
2022/01/03 09:49:08;;;;;;;;;;;14.80;47.80;;;;;;5012935;28;42993;-80
2022/01/03 09:51:34;;;;;;;;;;;15.20;47.90;;;;;;5012434;28;43401;-78
2022/01/03 09:54:00;;;;;;;;;;;15.50;47.70;;;;;;5014535;28;43066;-80
2022/01/03 09:56:27;;;;;;;;;;;15.80;47.60;;;;;;5011317;28;43681;-80
2022/01/03 09:58:53;;;;;;;;;;;15.80;47.50;;;;;;5013864;28;43203;-80
2022/01/03 10:01:19;;;;;;;;;;;16.00;47.80;;;;;;5013445;28;43370;-79
2022/01/03 10:03:47;;;;;;;;;;;16.10;47.80;;;;;;5015788;28;43082;-79
2022/01/03 10:06:14;;;;;;;;;;;17.00;48.20;;;;;;5014803;28;44630;-83
2022/01/03 10:08:40;;;;;;;;;;;16.40;47.80;;;;;;5015676;28;43023;-78
2022/01/03 10:11:05;;;;;;;;;;;16.40;47.80;;;;;;5012817;28;42794;-76
2022/01/03 10:13:31;;;;;;;;;;;16.50;47.80;;;;;;5014184;28;42847;-78
2022/01/03 10:15:57;;;;;;;;;;;16.60;47.70;;;;;;5017510;28;43048;-77
2022/01/03 10:18:22;;;;;;;;;;;16.70;47.80;;;;;;5018617;28;42961;-75
2022/01/03 10:20:48;;;;;;;;;;;16.70;47.90;;;;;;5018487;28;43105;-76
2022/01/03 10:23:15;;;;;;;;;;;16.80;47.90;;;;;;5017800;28;42999;-76
2022/01/03 10:25:42;;;;;;;;;;;16.80;47.90;;;;;;5016762;28;43097;-76
2022/01/03 10:28:07;;;;;;;;;;;16.80;47.90;;;;;;5017262;28;43233;-75
2022/01/03 10:30:45;;;;;;;;;;;16.90;48.10;;;;;;5015144;28;43551;-75
2022/01/03 10:33:15;;;;;;;;;;;17.00;48.00;;;;;;5014899;28;43036;-75
2022/01/03 10:35:48;;;;;;;;;;;17.00;48.00;;;;;;5013607;28;43267;-75
2022/01/03 10:38:31;;;;;;;;;;;17.00;48.00;;;;;;5009459;28;43064;-74
2022/01/03 10:41:08;;;;;;;;;;;17.00;47.00;;;;;;4986916;28;43006;-76
2022/01/03 10:43:33;;;;;;;;;;;16.90;46.40;;;;;;5005944;28;43966;-76
2022/01/03 10:45:59;;;;;;;;;;;16.80;46.30;;;;;;5006524;28;43179;-77
2022/01/03 10:48:29;;;;;;;;;;;16.80;46.10;;;;;;5022396;28;43233;-76
2022/01/03 10:50:56;;;;;;;;;;;16.80;46.10;;;;;;5023236;28;43591;-76
2022/01/03 10:53:31;;;;;;;;;;;16.70;45.90;;;;;;5023227;28;43451;-75
2022/01/03 10:55:57;;;;;;;;;;;16.70;45.90;;;;;;5023649;28;42819;-76
2022/01/03 10:58:30;;;;;;;;;;;16.70;46.00;;;;;;5020599;28;43102;-76
2022/01/03 11:00:56;;;;;;;;;;;16.70;45.90;;;;;;5003066;28;43475;-77
2022/01/03 11:05:52;;;;;;;;;;;16.80;46.00;;;;;;5004135;28;43321;-77
2022/01/03 11:11:02;;;;;;;;;;;16.70;45.90;;;;;;5022809;28;42912;-76
2022/01/03 11:13:27;;;;;;;;;;;16.80;45.90;;;;;;5023928;28;42902;-76
2022/01/03 11:15:53;;;;;;;;;;;16.80;46.00;;;;;;5022925;28;42892;-76
2022/01/03 11:18:19;;;;;;;;;;;16.80;46.00;;;;;;5022491;28;42964;-76
2022/01/03 11:20:46;;;;;;;;;;;16.80;45.80;;;;;;5003064;28;44188;-76
2022/01/03 11:23:20;;;;;;;;;;;16.70;45.80;;;;;;5021461;28;43012;-76
2022/01/03 11:25:45;;;;;;;;;;;16.70;45.80;;;;;;5021584;28;43501;-75
2022/01/03 11:28:11;;;;;;;;;;;16.80;45.70;;;;;;5021264;28;43025;-76
2022/01/03 11:30:38;;;;;;;;;;;16.80;45.70;;;;;;5021301;28;43748;-75
2022/01/03 11:33:04;;;;;;;;;;;16.80;45.70;;;;;;5005143;28;43158;-75
2022/01/03 11:35:31;;;;;;;;;;;16.80;45.60;;;;;;5021639;28;43206;-75
2022/01/03 11:37:58;;;;;;;;;;;16.80;45.60;;;;;;5021216;28;43809;-76
2022/01/03 11:40:26;;;;;;;;;;;16.80;45.60;;;;;;5022806;28;43057;-76
2022/01/03 11:42:52;;;;;;;;;;;16.80;45.70;;;;;;5022527;28;43050;-75
2022/01/03 11:45:18;;;;;;;;;;;16.80;45.50;;;;;;5022158;28;43764;-76
2022/01/03 11:47:44;;;;;;;;;;;16.80;45.60;;;;;;5023201;28;43010;-77
2022/01/03 11:50:09;;;;;;;;;;;16.90;45.60;;;;;;5023291;28;42966;-76
2022/01/03 11:52:36;;;;;;;;;;;16.80;45.50;;;;;;5004918;28;42926;-76
2022/01/03 11:55:03;;;;;;;;;;;16.80;45.50;;;;;;5013731;28;43029;-76
2022/01/03 11:57:47;;;;;;;;;;;16.80;45.50;;;;;;5018088;28;42901;-76
2022/01/03 12:05:43;;;;;;;;;;;16.80;45.70;;;;;;5017845;28;42996;-76
2022/01/03 12:08:18;;;;;;;;;;;17.00;46.50;;;;;;5025825;28;43358;-77
2022/01/03 12:10:45;;;;;;;;;;;17.00;47.40;;;;;;5017448;28;43695;-76
2022/01/03 12:13:11;;;;;;;;;;;17.00;46.30;;;;;;5015363;28;42922;-75
2022/01/03 12:15:39;;;;;;;;;;;17.00;46.50;;;;;;5005853;28;43365;-75
2022/01/03 12:18:24;;;;;;;;;;;17.00;46.80;;;;;;4988839;28;43044;-77
2022/01/03 12:20:50;;;;;;;;;;;17.00;47.00;;;;;;5004893;28;43661;-74
2022/01/03 12:23:36;;;;;;;;;;;17.00;47.30;;;;;;5006509;28;42910;-74
2022/01/03 12:26:10;;;;;;;;;;;17.10;47.70;;;;;;5005565;28;43493;-74
2022/01/03 12:28:54;;;;;;;;;;;17.10;47.90;;;;;;5006416;28;42962;-73
2022/01/03 12:31:20;;;;;;;;;;;17.10;48.00;;;;;;4988248;28;43439;-75
2022/01/03 12:34:11;;;;;;;;;;;17.20;51.70;;;;;;5019809;28;43001;-77
2022/01/03 12:36:37;;;;;;;;;;;17.30;54.10;;;;;;5012844;28;43144;-75
2022/01/03 12:39:03;;;;;;;;;;;17.40;55.90;;;;;;5015161;28;43158;-77
2022/01/03 12:41:39;;;;;;;;;;;17.40;56.00;;;;;;5015948;28;43663;-69
2022/01/03 12:44:04;;;;;;;;;;;17.40;56.20;;;;;;5014741;28;42981;-71
2022/01/03 12:46:30;;;;;;;;;;;17.40;56.50;;;;;;5014044;28;43024;-71
2022/01/03 12:49:15;;;;;;;;;;;17.40;56.40;;;;;;5016473;28;42952;-71
2022/01/03 12:51:41;;;;;;;;;;;17.40;55.20;;;;;;5014535;28;42946;-70
2022/01/03 12:54:07;;;;;;;;;;;17.40;56.50;;;;;;5015103;28;42944;-72
2022/01/03 12:56:34;;;;;;;;;;;17.40;55.50;;;;;;5016238;28;42788;-72
2022/01/03 12:59:08;;;;;;;;;;;17.40;55.10;;;;;;5013793;28;43179;-70
2022/01/03 13:01:34;;;;;;;;;;;17.40;55.10;;;;;;5015462;28;43147;-73
2022/01/03 13:04:01;;;;;;;;;;;17.40;55.80;;;;;;5023230;28;42997;-70
2022/01/03 13:06:33;;;;;;;;;;;17.50;56.60;;;;;;5014020;28;43088;-71
2022/01/03 13:08:58;;;;;;;;;;;17.50;57.00;;;;;;5006776;28;42994;-73
2022/01/03 13:11:25;;;;;;;;;;;17.50;56.80;;;;;;5005616;28;43448;-72
2022/01/03 13:14:00;;;;;;;;;;;17.50;57.20;;;;;;5005695;28;42914;-71
2022/01/03 13:16:29;;;;;;;;;;;17.50;57.40;;;;;;5005734;28;42929;-72
2022/01/03 13:18:56;;;;;;;;;;;17.40;55.60;;;;;;5005107;28;43014;-71
2022/01/03 13:21:22;;;;;;;;;;;17.30;56.10;;;;;;5013436;28;42997;-72
2022/01/03 13:23:52;;;;;;;;;;;17.30;57.10;;;;;;5025965;28;42976;-74
2022/01/03 13:26:18;;;;;;;;;;;17.30;57.30;;;;;;5025573;28;43502;-69
2022/01/03 13:28:44;;;;;;;;;;;17.30;58.70;;;;;;5024919;28;42973;-69
2022/01/03 13:31:10;;;;;;;;;;;17.40;59.50;;;;;;5025303;28;43734;-70
2022/01/03 13:33:35;;;;;;;;;;;17.40;60.00;;;;;;5025518;28;42983;-72
2022/01/03 13:36:02;;;;;;;;;;;17.50;60.60;;;;;;5024885;28;43509;-73
2022/01/03 13:38:28;;;;;;;;;;;17.50;60.90;;;;;;5025635;28;43634;-71
2022/01/03 13:40:53;;;;;;;;;;;17.40;60.90;;;;;;5007241;28;43667;-74
2022/01/03 13:43:21;;;;;;;;;;;17.50;61.70;;;;;;5026958;28;43091;-71
2022/01/03 13:51:00;;;;;;;;;;;17.50;62.10;;;;;;5025106;28;43500;-78
2022/01/03 13:53:26;;;;;;;;;;;17.40;62.10;;;;;;5025709;28;43180;-78
2022/01/03 13:55:53;;;;;;;;;;;17.50;62.40;;;;;;5026016;28;42947;-80
2022/01/03 13:58:18;;;;;;;;;;;17.50;62.60;;;;;;5023978;28;43096;-79
2022/01/03 14:00:45;;;;;;;;;;;17.50;62.80;;;;;;5024747;28;42993;-79
2022/01/03 14:03:15;;;;;;;;;;;17.50;62.90;;;;;;5024925;28;42953;-71
2022/01/03 14:05:41;;;;;;;;;;;17.50;62.90;;;;;;5023771;28;43818;-78
2022/01/03 14:08:06;;;;;;;;;;;17.50;63.20;;;;;;5025380;28;43242;-73
2022/01/03 14:10:39;;;;;;;;;;;17.50;63.40;;;;;;5025552;28;43431;-79
2022/01/03 14:13:05;;;;;;;;;;;17.50;63.20;;;;;;5024653;28;43045;-76
2022/01/03 14:15:31;;;;;;;;;;;17.50;63.50;;;;;;5024403;28;43063;-79
2022/01/03 14:17:57;;;;;;;;;;;17.50;63.50;;;;;;5023923;28;43001;-79
2022/01/03 14:20:22;;;;;;;;;;;17.60;63.60;;;;;;5024179;28;42951;-79
2022/01/03 14:22:48;;;;;;;;;;;17.60;64.00;;;;;;5024435;28;42890;-75
2022/01/03 14:25:17;;;;;;;;;;;17.60;63.90;;;;;;5024610;28;42989;-79
2022/01/03 14:27:44;;;;;;;;;;;17.60;64.00;;;;;;4996458;28;43162;-75
2022/01/03 14:30:20;;;;;;;;;;;17.60;61.50;;;;;;5010718;28;43461;-79
2022/01/03 14:32:47;;;;;;;;;;;17.50;62.00;;;;;;5014408;28;44026;-78
2022/01/03 14:35:13;;;;;;;;;;;17.50;63.50;;;;;;5014237;28;43152;-75
2022/01/03 14:37:39;;;;;;;;;;;17.60;63.60;;;;;;5019545;28;42962;-78
2022/01/03 14:40:05;;;;;;;;;;;17.60;63.40;;;;;;5021303;28;42865;-74
2022/01/03 14:42:34;;;;;;;;;;;17.70;63.30;;;;;;5023453;28;43210;-74
2022/01/03 14:45:14;;;;;;;;;;;17.70;63.50;;;;;;5023654;28;43121;-74
2022/01/03 14:47:40;;;;;;;;;;;17.70;63.10;;;;;;5023879;28;42878;-75